Calamus, Iowa
Current Conditions -  °F | °C
As of 8:52 PM on Sunday 23 Nov 2014 (Local Time) from KDVN Reporting Station
Moderate Fog Moderate Fog  
Wind Chill: 46°   Ceiling: 200
Heat Index: 48°   Visibility: 0.25mi
Dew Point: 47°   Wind: 5mph
Humidity: 96%   Direction: 160°SSE
Pressure: 29.2"   Gusts: NA
Location:  41.83°N, 90.76°W
Report Text: KDVN 240252Z AUTO 16004KT 1/4SM FG VV002 09/08 A2920 RMK AO2 SLP890 60001 T00890083 58030
Loading
Personal Weather Stations






























Interactive Weather Map New forecast layout! Learn more

10-Day Weather Forecast

Advertisements
Track Severe Weather on mobile